createdAt,value
2024-05-09T00:01:58.197Z,77.71
2024-05-09T00:07:00.846Z,78.12
2024-05-09T00:12:03.888Z,78.15
2024-05-09T00:17:06.874Z,78.14
2024-05-09T00:22:09.188Z,78.18
2024-05-09T00:27:13.320Z,78.19
2024-05-09T00:32:16.249Z,78.64
2024-05-09T00:37:19.072Z,78.75
2024-05-09T00:42:21.802Z,79.10
2024-05-09T00:47:24.544Z,79.68
2024-05-09T00:52:28.666Z,80.11
2024-05-09T00:57:30.858Z,80.22
2024-05-09T01:02:33.271Z,80.84
2024-05-09T01:07:35.665Z,81.16
2024-05-09T01:12:38.059Z,80.27
2024-05-09T01:17:41.204Z,80.93
2024-05-09T01:22:44.337Z,81.25
2024-05-09T01:27:47.043Z,81.36
2024-05-09T01:32:49.746Z,81.64
2024-05-09T01:37:52.889Z,81.59
2024-05-09T01:42:57.012Z,81.46
2024-05-09T01:47:59.752Z,81.92
2024-05-09T01:53:02.571Z,82.68
2024-05-09T01:58:04.949Z,82.90
2024-05-09T02:03:09.448Z,82.94
2024-05-09T02:08:30.147Z,83.07
2024-05-09T02:13:32.503Z,83.68
2024-05-09T02:18:34.811Z,83.91
2024-05-09T02:23:37.169Z,84.22
2024-05-09T02:28:39.536Z,84.16
2024-05-09T02:33:41.915Z,84.59
2024-05-09T02:38:44.398Z,84.80
2024-05-09T02:43:48.054Z,85.16
2024-05-09T02:48:50.397Z,85.32
2024-05-09T02:53:52.625Z,85.48
2024-05-09T02:58:56.322Z,85.53
2024-05-09T03:03:58.751Z,85.93
2024-05-09T03:09:01.052Z,85.62
2024-05-09T03:14:03.376Z,85.67
2024-05-09T03:19:05.672Z,85.61
2024-05-09T03:24:08.202Z,85.07
2024-05-09T03:29:10.464Z,84.96
2024-05-09T03:34:12.718Z,85.29
2024-05-09T03:39:15.042Z,85.24
2024-05-09T03:44:17.958Z,85.03
2024-05-09T03:49:22.240Z,84.56
2024-05-09T03:54:25.404Z,84.15
2024-05-09T03:59:27.919Z,83.99
2024-05-09T04:04:30.263Z,84.08
2024-05-09T04:09:32.612Z,83.88
2024-05-09T04:14:35.107Z,83.70
2024-05-09T04:19:37.359Z,83.25
2024-05-09T04:24:39.592Z,82.51
2024-05-09T04:29:41.834Z,82.48
2024-05-09T04:34:44.053Z,82.40
2024-05-09T04:39:46.439Z,82.06
2024-05-09T04:44:49.257Z,81.85
2024-05-09T04:49:51.564Z,81.84
2024-05-09T04:54:54.809Z,81.69
2024-05-09T05:00:00.811Z,81.23
2024-05-09T05:05:03.468Z,80.91
2024-05-09T05:10:09.433Z,80.43
2024-05-09T05:15:14.240Z,76.90
2024-05-09T05:20:24.452Z,67.68
2024-05-09T05:25:33.311Z,55.03
2024-05-09T05:30:37.430Z,45.76
2024-05-09T05:35:40.546Z,38.78
2024-05-09T05:40:42.919Z,33.67
2024-05-09T05:45:46.073Z,31.53
2024-05-09T05:50:48.465Z,29.31
2024-05-09T05:55:50.957Z,29.06
2024-05-09T06:00:53.427Z,27.35
2024-05-09T06:05:55.774Z,26.05
2024-05-09T06:10:58.076Z,25.36
2024-05-09T06:16:02.053Z,25.00
2024-05-09T06:21:04.517Z,24.50
2024-05-09T06:26:06.843Z,23.80
2024-05-09T06:31:09.545Z,22.71
2024-05-09T06:36:11.881Z,21.52
2024-05-09T06:41:14.292Z,21.24
2024-05-09T06:46:17.523Z,20.46
2024-05-09T06:51:19.761Z,20.24
2024-05-09T06:56:22.149Z,20.15
2024-05-09T07:01:24.575Z,20.81
2024-05-09T07:06:27.988Z,21.00
2024-05-09T07:11:31.134Z,20.71
2024-05-09T07:16:33.478Z,21.03
2024-05-09T07:21:35.810Z,20.83
2024-05-09T07:26:38.294Z,20.47
2024-05-09T07:31:40.799Z,20.80
2024-05-09T07:36:43.186Z,20.60
2024-05-09T07:41:45.660Z,20.75
2024-05-09T07:47:48.836Z,21.02
2024-05-09T07:53:29.325Z,21.11
2024-05-09T07:57:35.606Z,21.37
2024-05-09T08:02:37.912Z,22.08
2024-05-09T08:07:40.173Z,21.46
2024-05-09T08:12:42.598Z,21.60
2024-05-09T08:17:44.966Z,22.92
2024-05-09T08:22:47.431Z,22.68
2024-05-09T08:27:49.684Z,23.36
2024-05-09T08:32:52.024Z,23.60
2024-05-09T08:37:54.375Z,23.07
2024-05-09T08:43:01.338Z,23.74
2024-05-09T08:48:08.564Z,24.71
2024-05-09T08:53:11.142Z,25.81
2024-05-09T08:58:20.480Z,26.09
2024-05-09T09:03:29.256Z,26.08
2024-05-09T09:08:32.049Z,25.88
2024-05-09T09:13:34.323Z,26.84
2024-05-09T09:18:36.822Z,27.32
2024-05-09T09:23:41.128Z,27.94
2024-05-09T09:28:44.623Z,27.61
2024-05-09T09:33:47.063Z,27.61
2024-05-09T09:38:51.472Z,27.93
2024-05-09T09:43:56.850Z,28.27
2024-05-09T09:49:00.442Z,28.82
2024-05-09T09:54:05.622Z,29.50
2024-05-09T09:59:09.355Z,29.57
2024-05-09T10:04:15.401Z,30.50
2024-05-09T10:09:18.342Z,31.08
2024-05-09T10:14:21.644Z,31.18
2024-05-09T10:19:27.763Z,31.73
2024-05-09T10:24:49.705Z,32.15
2024-05-09T10:29:53.387Z,32.40
2024-05-09T10:35:06.432Z,32.42
2024-05-09T10:45:19.938Z,32.77
2024-05-09T10:50:28.680Z,33.05
2024-05-09T10:55:34.268Z,33.33
2024-05-09T11:00:37.067Z,33.41
2024-05-09T11:05:42.042Z,33.45
2024-05-09T11:10:45.399Z,32.96
2024-05-09T11:15:49.255Z,32.80
2024-05-09T11:20:52.718Z,32.63
2024-05-09T11:25:56.932Z,32.34
2024-05-09T11:31:07.087Z,32.41
2024-05-09T11:36:10.631Z,32.58
2024-05-09T11:41:19.022Z,33.35
2024-05-09T11:46:21.741Z,33.58
2024-05-09T11:51:24.647Z,33.83
2024-05-09T11:56:26.936Z,33.75
2024-05-09T12:01:29.409Z,33.47
2024-05-09T12:06:32.880Z,33.96
2024-05-09T12:11:35.203Z,33.97
2024-05-09T12:16:37.535Z,33.96
2024-05-09T12:21:40.026Z,34.11
2024-05-09T12:26:42.410Z,34.74
2024-05-09T12:31:44.627Z,35.16
2024-05-09T12:36:46.929Z,34.71
2024-05-09T12:41:49.451Z,34.41
2024-05-09T12:46:51.761Z,34.36
2024-05-09T12:51:54.601Z,34.75
2024-05-09T12:56:56.927Z,34.78
2024-05-09T13:02:01.025Z,34.60
2024-05-09T13:07:07.792Z,34.75
2024-05-09T13:12:11.312Z,34.58
2024-05-09T13:17:13.571Z,34.57
2024-05-09T13:22:15.922Z,34.68
2024-05-09T13:27:18.193Z,35.07
2024-05-09T13:32:20.640Z,34.93
2024-05-09T13:37:23.101Z,34.76
2024-05-09T13:42:25.464Z,34.55
2024-05-09T13:47:28.130Z,34.80
2024-05-09T13:52:31.761Z,34.63
2024-05-09T13:57:34.242Z,35.00
2024-05-09T14:02:36.757Z,34.72
2024-05-09T14:07:39.483Z,34.13
2024-05-09T14:12:42.012Z,34.48
2024-05-09T14:17:44.367Z,34.73
2024-05-09T14:22:46.584Z,34.30
2024-05-09T14:27:48.845Z,34.47
2024-05-09T14:32:51.220Z,34.67
2024-05-09T14:37:53.482Z,34.63
2024-05-09T14:43:01.114Z,34.34
2024-05-09T14:48:07.538Z,34.70
2024-05-09T14:53:12.685Z,34.39
2024-05-09T14:58:15.670Z,34.34
2024-05-09T15:03:19.723Z,35.00
2024-05-09T15:08:22.884Z,35.14
2024-05-09T15:13:25.327Z,35.42
2024-05-09T15:18:29.117Z,35.60
2024-05-09T15:23:31.530Z,35.67
2024-05-09T15:28:33.741Z,35.93
2024-05-09T15:33:36.224Z,35.60
2024-05-09T15:38:39.074Z,35.61
2024-05-09T15:43:41.274Z,36.37
2024-05-09T15:48:44.867Z,36.78
2024-05-09T15:53:48.040Z,36.81
2024-05-09T15:58:50.349Z,37.08
2024-05-09T16:03:52.813Z,37.40
2024-05-09T16:08:56.465Z,38.19
2024-05-09T16:13:58.815Z,38.16
2024-05-09T16:19:01.568Z,38.42
2024-05-09T16:24:04.023Z,38.53
2024-05-09T16:29:06.671Z,38.61
2024-05-09T16:34:09.649Z,38.55
2024-05-09T16:39:12.266Z,38.48
2024-05-09T16:44:14.474Z,38.60
2024-05-09T16:49:16.846Z,38.74
2024-05-09T16:54:19.699Z,38.56
2024-05-09T16:59:22.241Z,38.59
2024-05-09T17:04:26.309Z,38.79
2024-05-09T17:09:28.672Z,39.27
2024-05-09T17:14:30.865Z,39.64
2024-05-09T17:19:33.241Z,40.10
2024-05-09T17:24:36.540Z,40.30
2024-05-09T17:29:39.995Z,40.81
2024-05-09T17:34:42.721Z,41.31
2024-05-09T17:39:45.085Z,41.71
2024-05-09T17:44:47.778Z,42.29
2024-05-09T17:49:50.270Z,43.00
2024-05-09T17:54:53.092Z,43.67
2024-05-09T17:59:55.416Z,44.25
2024-05-09T18:04:57.815Z,44.75
2024-05-09T18:10:01.380Z,45.49
2024-05-09T18:15:04.791Z,46.11
2024-05-09T18:20:09.174Z,46.66
2024-05-09T18:25:14.708Z,47.50
2024-05-09T18:30:27.315Z,48.35
2024-05-09T18:35:33.886Z,48.81
2024-05-09T18:40:38.505Z,49.33
2024-05-09T18:45:42.617Z,50.18
2024-05-09T18:50:44.959Z,51.72
2024-05-09T18:55:48.831Z,52.66
2024-05-09T19:00:54.019Z,53.75
2024-05-09T19:05:57.811Z,54.73
2024-05-09T19:11:01.463Z,55.24
2024-05-09T19:16:04.045Z,56.33
2024-05-09T19:21:06.268Z,57.52
2024-05-09T19:26:09.524Z,58.03
2024-05-09T19:31:11.813Z,58.69
2024-05-09T19:36:14.075Z,59.06
2024-05-09T19:41:17.459Z,59.82
2024-05-09T19:46:19.903Z,61.24
2024-05-09T19:51:22.303Z,62.13
2024-05-09T19:56:24.979Z,63.11
2024-05-09T20:01:27.303Z,63.73
2024-05-09T20:06:30.367Z,63.81
2024-05-09T20:11:33.035Z,63.57
2024-05-09T20:16:36.112Z,63.71
2024-05-09T20:21:42.881Z,63.86
2024-05-09T20:26:45.344Z,63.84
2024-05-09T20:31:47.573Z,63.93
2024-05-09T20:36:49.985Z,64.03
2024-05-09T20:41:55.431Z,64.09
2024-05-09T20:46:57.700Z,64.37
2024-05-09T20:52:00.036Z,64.55
2024-05-09T20:57:03.562Z,64.63
2024-05-09T21:02:06.356Z,64.66
2024-05-09T21:07:10.010Z,64.74
2024-05-09T21:12:12.442Z,64.99
2024-05-09T21:17:14.795Z,65.54
2024-05-09T21:22:17.196Z,67.24
2024-05-09T21:27:22.101Z,68.83
2024-05-09T21:32:24.397Z,69.98
2024-05-09T21:37:27.092Z,71.39
2024-05-09T21:42:29.291Z,72.46
2024-05-09T21:47:35.304Z,73.12
2024-05-09T21:52:37.845Z,73.37
2024-05-09T21:57:41.721Z,73.61
2024-05-09T22:02:44.152Z,73.60
2024-05-09T22:07:46.698Z,73.70
2024-05-09T22:12:49.239Z,74.42
2024-05-09T22:17:51.553Z,74.23
2024-05-09T22:22:54.185Z,73.62
2024-05-09T22:27:56.452Z,72.93
2024-05-09T22:32:58.758Z,72.90
2024-05-09T22:38:04.626Z,73.30
2024-05-09T22:43:06.973Z,73.71
2024-05-09T22:48:09.640Z,74.26
2024-05-09T22:53:12.174Z,75.07
2024-05-09T22:58:15.304Z,75.45
2024-05-09T23:03:20.432Z,75.65
2024-05-09T23:08:22.776Z,76.09
2024-05-09T23:13:24.978Z,76.30
2024-05-09T23:18:27.378Z,76.19
2024-05-09T23:23:29.592Z,75.82
2024-05-09T23:28:32.008Z,75.16
2024-05-09T23:33:34.778Z,74.66
2024-05-09T23:38:39.323Z,74.30
2024-05-09T23:43:41.556Z,74.19
2024-05-09T23:48:43.841Z,73.83
2024-05-09T23:53:46.269Z,73.88
2024-05-09T23:58:49.433Z,73.98
